KTVC/TVC METAR and TAF weather

Enter ICAO airport designator
Station Type Date Time Source
KTVC METAR 2021/05/13 05:53 UTC NOAA

KTVC 130553Z AUTO 19004KT 10SM CLR 04/M02 A3038 RMK AO2 SLP291 T00391022 10139 20017 55002


Station Type Date Time Source
KTVC Decoded METAR 2021/05/13 05:53 UTC NOAA

CHERRY CAPITAL AIRPORT, MI, United States (KTVC) 44-44N 085-34W 190M
May 13, 2021 - 01:53 AM EDT / 2021.05.13 0553 UTC
Wind: from the S (190 degrees) at 5 MPH (4 KT):0
Visibility: 10 mile(s):0
Sky conditions: clear
Temperature: 39.0 F (3.9 C)
Dew Point: 28.0 F (-2.2 C)
Relative Humidity: 64%
Pressure (altimeter): 30.38 in. Hg (1028 hPa)
Pressure tendency: 0.01 inches (0.2 hPa) lower than three hours ago
ob: KTVC 130553Z AUTO 19004KT 10SM CLR 04/M02 A3038 RMK AO2 SLP291 T00391022 10139 20017 55002
cycle: 6

Station Type Date Time Source
KTVC TAF 2021/05/13 06:21 UTC NOAA

TAF KTVC 130520Z 1306/1406 00000KT P6SM SKC
FM131400 31007KT P6SM SKC
FM140000 00000KT P6SM SKC

Example: see airport list